• Join FlightAware (Why Join?)
  • Login
  • US Flag 
07:04AM EDT


 

Airport Tracker/Info


-or-


 

Live Flight TrackerFlight Track Log ✈ N29MF ✈ 05-Mar-2012 ✈ KMDD - KTYR

Flight Track Log - Related Links

Times and Time Zones

All times are in EST time to prevent confusion due to time zone crossing. See the N29MF flight status page for this flight to view local times or setup timezone preferences in your user account.

Time Position Orientation Groundspeed Altitude Reporting Facility
EST Latitude Longitude Course Direction KTS MPH feet Rate Location/Type
03:38PM 32.0574 -101.3262 270° West  Level FlightAware Approximate
03:39PM 32.0599 -101.2657 270° West  Level FlightAware Approximate
03:40PM 32.0624 -101.2031 269° West  Level FlightAware Approximate
03:41PM 32.0650 -101.1406 269° West  Level FlightAware Approximate
03:43PM 32.0556 -101.8522 88° East 161 185 9,200  Level Fort Worth Center
03:44PM 32.0575 -101.7983 88° East 161 185 10,000 720 Climbing Fort Worth Center
03:45PM 32.0594 -101.7422 88° East 161 185 10,700 480 Climbing Fort Worth Center
03:46PM 32.0614 -101.6811 86° East 167 192 11,000 120 Climbing Fort Worth Center
03:47PM 32.0658 -101.6100 86° East 192 221 11,000  Level Fort Worth Center
03:48PM 32.0706 -101.5367 90° East 207 238 11,000  Level Fort Worth Center
03:49PM 32.0708 -101.4633 86° East 218 251 11,000  Level Fort Worth Center
03:50PM 32.0753 -101.3900 88° East 223 257 11,000  Level Fort Worth Center
03:51PM 32.0775 -101.3142 88° East 223 257 11,000  Level Fort Worth Center
03:52PM 32.0797 -101.2431 86° East 223 257 11,100  Climbing Fort Worth Center
03:53PM 32.0842 -101.1672 90° East 218 251 11,100  Level Fort Worth Center
03:54PM 32.0842 -101.0936 86° East 218 251 11,100  Level Fort Worth Center
03:55PM 32.0883 -101.0228 88° East 218 251 11,100  Level Fort Worth Center
03:56PM 32.0900 -100.9639 88° East 218 251 11,100  Level Fort Worth Center
03:57PM 32.0922 -100.8856 88° East 218 251 11,100  Level Fort Worth Center
03:58PM 32.0942 -100.8144 88° East 218 251 11,100 -60 Level Fort Worth Center
03:59PM 32.0961 -100.7436 86° East 218 251 11,000 -60 Descending Fort Worth Center
04:00PM 32.1000 -100.6725 88° East 218 251 11,000  Level Fort Worth Center
04:01PM 32.1017 -100.6039 88° East 218 251 11,000  Level Fort Worth Center
04:02PM 32.1036 -100.5306 88° East 218 251 11,000  Level Fort Worth Center
04:03PM 32.1053 -100.4594 88° East 218 251 11,000  Level Fort Worth Center
04:04PM 32.1069 -100.3883 88° East 218 251 11,000  Level Fort Worth Center
04:05PM 32.1086 -100.3172 88° East 213 245 11,000  Level Fort Worth Center
04:06PM 32.1103 -100.2486 87° East 213 245 11,000  Level Fort Worth Center
04:07PM 32.1139 -100.1753 88° East 213 245 11,000  Level Fort Worth Center
04:08PM 32.1156 -100.1067 89° East 213 245 11,000  Level Fort Worth Center
04:09PM 32.1169 -100.0356 87° East 213 245 11,000  Level Fort Worth Center
04:10PM 32.1206 -99.9644 89° East 213 245 11,000 300 Level Fort Worth Center
04:11PM 32.1219 -99.8933 89° East 199 229 11,600 480 Climbing Fort Worth Center
04:12PM 32.1233 -99.8297 91° East 192 221 12,000 180 Climbing Fort Worth Center
04:13PM 32.1222 -99.7658 87° East 219 252 12,000 240 Level Fort Worth Center
04:14PM 32.1256 -99.6972 89° East 214 246 12,500 420 Climbing Fort Worth Center
04:15PM 32.1267 -99.6358 89° East 202 232 12,900 240 Climbing Fort Worth Center
04:16PM 32.1281 -99.5697 87° East 197 227 13,000  Climbing Fort Worth Center
04:17PM 32.1311 -99.4986 87° East 197 227 13,000  Level Fort Worth Center
04:18PM 32.1344 -99.4275 91° East 203 234 13,000  Level Fort Worth Center
04:19PM 32.1336 -99.3564 89° East 208 239 13,000  Level Fort Worth Center
04:20PM 32.1347 -99.2853 87° East 213 245 13,000 -60 Level Fort Worth Center
04:21PM 32.1378 -99.2167 89° East 213 245 12,900 -60 Descending Fort Worth Center
04:22PM 32.1386 -99.1456 87° East 213 245 12,900  Level Fort Worth Center
04:23PM 32.1417 -99.0769 89° East 213 245 12,900  Level Fort Worth Center
04:24PM 32.1428 -99.0058 89° East 213 245 12,900  Level Fort Worth Center
04:25PM 32.1436 -98.9369 89° East 213 245 12,900  Level Fort Worth Center
04:26PM 32.1444 -98.8683 87° East 213 245 12,900  Level Fort Worth Center
04:27PM 32.1472 -98.7972 89° East 213 245 12,900  Level Fort Worth Center
04:28PM 32.1481 -98.7286 89° East 213 245 12,900  Level Fort Worth Center
04:29PM 32.1486 -98.6600 87° East 213 245 12,900  Level Fort Worth Center
04:30PM 32.1514 -98.5911 91° East 213 245 12,900  Level Fort Worth Center
04:31PM 32.1500 -98.5225 88° East 213 245 12,900  Level Fort Worth Center
04:32PM 32.1525 -98.4539 91° East 213 245 12,900  Level Fort Worth Center
04:33PM 32.1511 -98.3728 87° East 218 251 12,900 -240 Level Fort Worth Center
04:34PM 32.1539 -98.3042 90° East 218 251 12,500 -300 Descending Fort Worth Center
04:35PM 32.1542 -98.2331 89° East 218 251 12,300 -300 Descending Fort Worth Center
04:36PM 32.1547 -98.1619 90° East 218 251 11,900 -420 Descending Fort Worth Center
04:37PM 32.1550 -98.0858 87° East 218 251 11,500 -420 Descending Fort Worth Center
04:38PM 32.1575 -98.0194 88° East 218 251 11,100 -300 Descending Fort Worth Center
04:39PM 32.1600 -97.9411 90° East 218 251 11,000 -60 Descending Fort Worth Center
04:40PM 32.1603 -97.8772 90° East 213 245 11,000  Level Fort Worth Center
04:41PM 32.1606 -97.8011 90° East 213 245 11,000  Level Fort Worth Center
04:42PM 32.1608 -97.7372 86° East 213 245 11,000  Level Fort Worth Center
04:43PM 32.1650 -97.6589 88° East 213 245 11,000  Level Fort Worth Center
04:44PM 32.1672 -97.5975 88° East 213 245 11,000  Level Fort Worth Center
04:45PM 32.1694 -97.5214 92° East 213 245 11,000  Level Fort Worth Center
04:46PM 32.1675 -97.4600 88° East 213 245 11,000  Level Fort Worth Center
04:47PM 32.1694 -97.3839 88° East 213 245 11,000  Level Fort Worth Center
04:48PM 32.1717 -97.3225 90° East 213 245 11,000  Level Fort Worth Center
04:49PM 32.1714 -97.2464 88° East 213 245 11,000  Level Fort Worth Center
04:50PM 32.1733 -97.1778 88° East 213 245 11,000  Level Fort Worth Center
04:51PM 32.1753 -97.1114 90° East 213 245 11,000 -300 Level Fort Worth Center
04:52PM 32.1753 -97.0378 86° East 213 245 10,500 -480 Descending Fort Worth Center
04:53PM 32.1792 -96.9717 90° East 213 245 10,100 -420 Descending Fort Worth Center
04:54PM 32.1789 -96.8981 90° East 213 245 9,700 -420 Descending Fort Worth Center
04:55PM 32.1786 -96.8292 88° East 213 245 9,300 -360 Descending Fort Worth Center
04:56PM 32.1803 -96.7628 88° East 213 245 9,000 -180 Descending Fort Worth Center
04:57PM 32.1822 -96.6992 91° East 213 245 9,000 -60 Level Fort Worth Center
04:58PM 32.1817 -96.6303 88° East 207 238 8,900 -300 Descending Fort Worth Center
04:59PM 32.1833 -96.5667 91° East 197 227 8,500 -420 Descending Fort Worth Center
05:00PM 32.1828 -96.4978 88° East 197 227 8,100 -420 Descending Fort Worth Center
05:01PM 32.1844 -96.4339 86° East 204 235 7,700 -480 Descending Fort Worth Center
05:02PM 32.1881 -96.3653 91° East 204 235 7,200 -540 Descending Fort Worth Center
05:03PM 32.1875 -96.2989 89° East 204 235 6,700 -540 Descending Fort Worth Center
05:04PM 32.1889 -96.2303 84° East 204 235 6,200 -360 Descending Fort Worth Center
05:05PM 32.1947 -96.1639 73° East 204 235 6,000 -120 Descending Fort Worth Center
05:06PM 32.2108 -96.1022 71° East 194 223 6,000  Level Fort Worth Center
05:07PM 32.2289 -96.0406 78° East 185 213 6,000  Level Fort Worth Center
05:08PM 32.2386 -95.9864 77° East 185 213 6,000  Level Fort Worth Center
05:09PM 32.2525 -95.9150 78° East 194 223 6,000 -240 Level Fort Worth Center
05:10PM 32.2642 -95.8508 76° East 194 223 5,600 -540 Descending Fort Worth Center
05:11PM 32.2781 -95.7842 74° East 205 236 5,000 -480 Descending Fort Worth Center
05:12PM 32.2919 -95.7250 75° East 200 230 4,700 -360 Descending Fort Worth Center
05:13PM 32.3036 -95.6733 81° East 195 224 4,300 -360 Descending Fort Worth Center
05:14PM 32.3131 -95.6042 77° East 195 224 4,000 840 Descending Fort Worth Center
05:15PM 32.3247 -95.5425 73° East 195 224 6,000 960 Climbing Fort Worth Center
05:16PM 32.3406 -95.4806 75° East 195 224 6,000  Level Fort Worth Center
05:17PM 32.3542 -95.4189 74° East 195 224 6,000  Level Fort Worth Center
05:18PM 32.3600 -95.3942 74° East 195 224 6,000  Level Fort Worth Center